KAID/AID METAR and TAF weather

Enter ICAO airport designator
Station Type Date Time Source
KAID METAR 2018/07/20 13:47 UTC NOAA

KAID 201347Z 15010KT 10SM BKN050 21/19 A2986


Station Type Date Time Source
KAID Decoded METAR 2018/07/20 13:47 UTC NOAA

Anderson Municipal, IN, United States (KAID) 40-07N 085-37W
Jul 20, 2018 - 09:47 AM EDT / 2018.07.20 1347 UTC
Wind: from the SSE (150 degrees) at 12 MPH (10 KT):0
Visibility: 10 mile(s):0
Sky conditions: mostly cloudy
Temperature: 69 F (21 C)
Dew Point: 66 F (19 C)
Relative Humidity: 88%
Pressure (altimeter): 29.86 in. Hg (1011 hPa)
ob: KAID 201347Z 15010KT 10SM BKN050 21/19 A2986
cycle: 14

Station Type Date Time Source
KAID TAF UTC NOAA

Error!


Example: see airport list